Main page
METAR-TAF:

METAR-TAF

Airports :

Zumbi dos Palmares International Airport

Maceió, Alagoas, Brazil

latitude: 09-31S, longitude: 035-47W, elevation: 117 m

Current weather observation

The report was made 18 minutes ago, at 00:00 UTC
Wind 4 kt from the East
Temperature 26°C
Humidity 84%
Pressure 1013 hPa
Visibility 10 km or more
Broken clouds at a height of 1700 ft

METAR: SBMO 160000Z 08004KT 9999 BKN017 26/23 Q1013

Time: 21:18 (00:18 UTC)

Forecast

The report was made 2 hours and 18 minutes ago, at 22:00 UTC
Forecast valid from 16 at 00 UTC to 16 at 24 UTC
Wind 5 kt from the Northeast
Visibility 10 km or more
Scattered clouds at a height of 1800 ft
Probability 30%
from 16 at 00 UTC to 16 at 02 UTC
Visibility: 6000 m
Broken clouds at a height of 1500 ft
rain showers
Becoming
from 16 at 11 UTC to 16 at 12 UTC
Wind 11 kt from the East

TAF: SBMO 152200Z 1600/1624 04005KT 9999 SCT018 TN24/1608Z TX30/1615Z PROB30 1600/1602 6000 SHRA BKN015 BECMG 1611/1612 08011KT RMK PEA

Weather observations and forecasts of more than 4000 airports (METAR and TAF reports).

The available stations are represented by yellow and red dots on the map.

Hover mouse over dot to see the name of the station.

Then click to see weather observations and forecasts.

To change the map : click on the green buttons with a black cross to zoom in, on the green button with a dash to zoom out, or on the green arrows for adjacent maps.


METAR-TAF: